Time;durP1;ratioP1;P1;durP2;ratioP2;P2;SDS_P1;SDS_P2;PMS_P1;PMS_P2;Temp;Humidity;BMP_temperature;BMP_pressure;BME280_temperature;BME280_humidity;BME280_pressure;Samples;Min_cycle;Max_cycle;Signal;HPM_P1;HPM_P2
2023/01/09 00:02:09;;;;;;;3.25;1.50;;;;;;;9.73;45.78;99529.56;7390867;19;20328;-58
2023/01/09 00:04:35;;;;;;;3.10;1.50;;;;;;;9.86;45.92;99533.66;7386727;19;20006;-56
2023/01/09 00:07:00;;;;;;;4.03;1.48;;;;;;;9.86;45.68;99530.94;7385801;19;20003;-58
2023/01/09 00:09:26;;;;;;;2.50;1.30;;;;;;;9.71;46.08;99537.31;7391790;19;20010;-57
2023/01/09 00:11:53;;;;;;;3.22;1.60;;;;;;;9.68;46.24;99527.16;7390382;19;20032;-59
2023/01/09 00:14:21;;;;;;;3.72;1.55;;;;;;;9.70;46.12;99533.81;7389989;19;20014;-58
2023/01/09 00:16:54;;;;;;;2.20;1.50;;;;;;;9.82;45.63;99527.38;7389520;19;20494;-57
2023/01/09 00:19:20;;;;;;;3.60;1.52;;;;;;;9.72;45.88;99523.34;7390109;19;20003;-59
2023/01/09 00:21:46;;;;;;;3.00;1.50;;;;;;;9.85;45.92;99521.19;7388924;19;20027;-56
2023/01/09 00:24:11;;;;;;;3.28;1.23;;;;;;;9.88;45.62;99520.44;7388970;19;19995;-57
2023/01/09 00:26:37;;;;;;;4.03;1.55;;;;;;;9.87;45.74;99518.09;7390112;19;20003;-59
2023/01/09 00:29:03;;;;;;;4.13;1.48;;;;;;;9.56;46.23;99520.72;7387387;19;20003;-57
2023/01/09 00:31:29;;;;;;;2.22;1.17;;;;;;;9.44;46.48;99507.31;7390185;19;20001;-57
2023/01/09 00:34:06;;;;;;;2.65;1.20;;;;;;;9.82;45.68;99494.69;7389328;19;19995;-57
2023/01/09 00:36:32;;;;;;;3.00;1.30;;;;;;;9.89;45.72;99492.03;7390286;19;19999;-57
2023/01/09 00:38:58;;;;;;;3.85;1.40;;;;;;;9.90;45.62;99492.81;7387488;19;19991;-56
2023/01/09 00:41:33;;;;;;;2.78;1.23;;;;;;;9.96;45.55;99486.69;7390101;19;20026;-57
2023/01/09 00:44:13;;;;;;;3.60;1.50;;;;;;;9.95;45.75;99485.13;7393994;19;20462;-58
2023/01/09 00:46:44;;;;;;;3.50;1.60;;;;;;;9.72;45.76;99484.41;7396924;19;19995;-57
2023/01/09 00:49:12;;;;;;;3.42;1.35;;;;;;;9.87;45.88;99486.19;7396509;19;20013;-57
2023/01/09 00:51:39;;;;;;;3.83;1.48;;;;;;;9.91;45.65;99480.78;7395676;19;20003;-57
2023/01/09 00:54:05;;;;;;;3.55;1.40;;;;;;;9.96;45.71;99475.00;7394798;19;20454;-57
2023/01/09 00:56:34;;;;;;;2.85;1.30;;;;;;;10.07;45.35;99478.66;7393947;19;20010;-56
2023/01/09 00:59:01;;;;;;;2.97;1.50;;;;;;;10.01;45.83;99480.91;7395882;19;20023;-57
2023/01/09 01:01:26;;;;;;;2.83;1.50;;;;;;;10.04;45.43;99473.16;7397001;19;20348;-58
2023/01/09 01:03:52;;;;;;;2.33;1.10;;;;;;;10.13;45.56;99470.94;7393738;19;19998;-58
2023/01/09 01:09:02;;;;;;;2.47;1.30;;;;;;;10.05;45.60;99472.00;7393584;19;20003;-57
2023/01/09 01:11:31;;;;;;;2.95;1.42;;;;;;;10.21;45.33;99471.81;7395863;19;20454;-57
2023/01/09 01:13:57;;;;;;;2.42;1.30;;;;;;;10.25;45.23;99465.25;7395249;19;20406;-58
2023/01/09 01:16:22;;;;;;;4.93;1.33;;;;;;;10.18;45.37;99471.41;7395467;19;20012;-58
2023/01/09 01:18:49;;;;;;;3.22;1.40;;;;;;;10.19;45.43;99478.41;7396173;19;19995;-57
2023/01/09 01:21:15;;;;;;;5.95;1.45;;;;;;;10.29;45.34;99468.03;7395696;19;20366;-57
2023/01/09 01:23:42;;;;;;;3.72;1.52;;;;;;;10.31;45.44;99460.25;7395565;19;20070;-58
2023/01/09 01:26:10;;;;;;;2.13;1.52;;;;;;;10.36;45.33;99471.59;7395534;19;20026;-56
2023/01/09 01:28:36;;;;;;;4.22;1.45;;;;;;;10.31;45.42;99465.69;7391815;19;19999;-57
2023/01/09 01:31:03;;;;;;;3.28;1.52;;;;;;;10.29;45.82;99471.53;7395620;19;20459;-58
2023/01/09 01:33:29;;;;;;;4.05;1.67;;;;;;;10.31;45.41;99471.94;7396014;19;20005;-58
2023/01/09 01:36:03;;;;;;;3.72;1.90;;;;;;;10.15;46.08;99474.88;7394618;19;20404;-56
2023/01/09 01:38:29;;;;;;;1.88;1.23;;;;;;;10.22;46.06;99476.91;7394583;19;19998;-58
2023/01/09 01:40:55;;;;;;;4.63;1.67;;;;;;;10.34;45.96;99479.38;7395654;19;19998;-57
2023/01/09 01:43:21;;;;;;;3.90;1.60;;;;;;;10.15;46.28;99482.25;7394971;19;20005;-58
2023/01/09 01:45:47;;;;;;;3.33;1.80;;;;;;;10.19;46.18;99485.81;7395048;19;20006;-56
2023/01/09 01:48:29;;;;;;;4.10;1.70;;;;;;;9.90;47.08;99490.91;7392197;19;20166;-57
2023/01/09 01:51:00;;;;;;;3.67;1.60;;;;;;;10.06;47.04;99489.94;7394866;19;20016;-57
2023/01/09 01:53:33;;;;;;;3.72;1.88;;;;;;;10.00;46.94;99490.25;7390515;19;20013;-57
2023/01/09 01:56:08;;;;;;;2.78;1.45;;;;;;;10.14;46.87;99488.88;7391855;19;20006;-57
2023/01/09 01:58:39;;;;;;;6.18;2.00;;;;;;;9.95;47.51;99493.31;7393673;19;20024;-57
2023/01/09 02:01:05;;;;;;;3.85;1.73;;;;;;;9.76;48.22;99494.19;7394396;19;20084;-57
2023/01/09 02:03:32;;;;;;;3.53;1.70;;;;;;;10.13;47.65;99487.28;7393273;19;20003;-57
2023/01/09 02:05:58;;;;;;;3.92;1.83;;;;;;;10.21;47.64;99491.69;7392941;19;20066;-57
2023/01/09 02:08:23;;;;;;;2.88;1.50;;;;;;;10.05;47.88;99480.19;7390334;19;20036;-57
2023/01/09 02:10:50;;;;;;;4.40;1.85;;;;;;;9.85;48.73;99480.31;7394197;19;20003;-57
2023/01/09 02:13:17;;;;;;;4.35;1.70;;;;;;;10.07;48.19;99475.13;7391789;19;20349;-57
2023/01/09 02:15:54;;;;;;;6.03;2.45;;;;;;;10.11;48.10;99471.31;7394205;19;20002;-57
2023/01/09 02:18:38;;;;;;;2.50;1.67;;;;;;;10.22;48.01;99474.19;7392325;19;20498;-57
2023/01/09 02:21:40;;;;;;;4.35;1.70;;;;;;;10.23;48.27;99474.94;7392507;19;20010;-57
2023/01/09 02:24:46;;;;;;;3.83;1.70;;;;;;;10.18;48.40;99468.69;7393105;19;19999;-57
2023/01/09 02:27:32;;;;;;;4.60;1.92;;;;;;;10.12;48.53;99477.56;7392041;19;20064;-57
2023/01/09 02:30:18;;;;;;;3.60;1.75;;;;;;;10.03;49.05;99477.03;7392805;19;20007;-57
2023/01/09 02:32:59;;;;;;;3.72;1.63;;;;;;;10.00;49.29;99468.44;7393680;19;20015;-57
2023/01/09 02:35:45;;;;;;;3.63;1.85;;;;;;;9.84;50.04;99473.28;7391404;19;20038;-58
2023/01/09 02:38:29;;;;;;;3.25;1.70;;;;;;;10.06;49.67;99462.66;7392369;19;20014;-57
2023/01/09 02:40:59;;;;;;;4.18;1.83;;;;;;;9.98;49.60;99465.31;7390958;19;20086;-57
2023/01/09 02:43:25;;;;;;;3.15;1.75;;;;;;;10.20;49.25;99465.56;7393289;19;20002;-57
2023/01/09 02:45:50;;;;;;;3.28;1.70;;;;;;;9.95;49.89;99463.31;7393191;19;20014;-57
2023/01/09 02:48:16;;;;;;;4.88;2.00;;;;;;;10.11;49.62;99462.34;7391324;19;20364;-58
2023/01/09 02:50:52;;;;;;;3.97;1.90;;;;;;;10.28;48.87;99464.50;7392458;19;20111;-57
2023/01/09 02:53:44;;;;;;;4.13;1.88;;;;;;;10.25;49.35;99464.44;7390824;19;20003;-57
2023/01/09 02:56:54;;;;;;;3.05;1.90;;;;;;;9.94;49.86;99467.19;7390964;19;20026;-57
2023/01/09 02:59:32;;;;;;;4.75;2.10;;;;;;;10.14;49.61;99461.59;7387998;19;20002;-56
2023/01/09 03:02:21;;;;;;;4.03;1.85;;;;;;;10.22;49.50;99470.66;7391573;19;19991;-58
2023/01/09 03:05:02;;;;;;;5.90;1.85;;;;;;;10.19;49.40;99459.31;7388338;19;19995;-56
2023/01/09 03:07:45;;;;;;;5.72;2.00;;;;;;;10.21;49.53;99466.38;7390595;19;20026;-58
2023/01/09 03:10:22;;;;;;;3.00;1.92;;;;;;;10.30;49.22;99461.38;7392906;19;19998;-58
2023/01/09 03:12:51;;;;;;;3.30;1.63;;;;;;;10.31;49.31;99458.28;7390203;19;20022;-57
2023/01/09 03:15:22;;;;;;;4.40;1.90;;;;;;;10.37;49.13;99456.81;7391217;19;20002;-57
2023/01/09 03:17:50;;;;;;;2.13;1.40;;;;;;;10.32;49.39;99450.91;7391112;19;20026;-58
2023/01/09 03:20:21;;;;;;;2.72;1.48;;;;;;;10.33;49.22;99461.44;7392042;19;20616;-57
2023/01/09 03:22:54;;;;;;;3.67;1.67;;;;;;;10.44;48.84;99463.53;7392431;19;20002;-57
2023/01/09 03:25:20;;;;;;;4.07;1.80;;;;;;;10.39;49.05;99456.44;7388663;19;20002;-57
2023/01/09 03:27:45;;;;;;;2.70;1.30;;;;;;;10.54;48.94;99462.84;7389747;19;20006;-57
2023/01/09 03:30:11;;;;;;;4.22;1.40;;;;;;;10.57;48.91;99449.25;7391894;19;20331;-57
2023/01/09 03:32:37;;;;;;;3.75;1.50;;;;;;;10.64;48.72;99451.25;7390048;19;19994;-57
2023/01/09 03:35:03;;;;;;;2.78;1.50;;;;;;;10.61;49.01;99452.00;7390238;19;20479;-57
2023/01/09 03:37:29;;;;;;;4.35;1.52;;;;;;;10.64;48.54;99451.25;7390861;19;20066;-57
2023/01/09 03:39:55;;;;;;;3.67;1.45;;;;;;;10.70;48.70;99449.75;7390898;19;20006;-58
2023/01/09 03:42:20;;;;;;;2.70;1.30;;;;;;;10.66;48.70;99459.84;7391481;19;19998;-58
2023/01/09 03:44:46;;;;;;;3.10;1.45;;;;;;;10.68;48.88;99451.28;7390159;19;20010;-58
2023/01/09 03:47:12;;;;;;;2.47;1.30;;;;;;;10.71;48.82;99450.53;7389626;19;20062;-58
2023/01/09 03:49:38;;;;;;;2.03;1.30;;;;;;;10.72;48.77;99452.91;7390526;19;19999;-58
2023/01/09 03:52:04;;;;;;;1.83;1.20;;;;;;;10.67;49.02;99450.50;7391671;19;20024;-56
2023/01/09 03:54:29;;;;;;;3.25;1.52;;;;;;;10.72;48.86;99450.16;7387821;19;20071;-57
2023/01/09 03:56:55;;;;;;;2.67;1.50;;;;;;;10.66;49.05;99448.16;7388905;19;20003;-57
2023/01/09 03:59:21;;;;;;;2.72;1.45;;;;;;;10.67;49.13;99447.78;7388066;19;20010;-57
2023/01/09 04:01:47;;;;;;;2.25;1.20;;;;;;;10.63;48.91;99444.22;7391466;19;19995;-57
2023/01/09 04:04:12;;;;;;;2.47;1.30;;;;;;;10.63;49.03;99449.69;7388989;19;20078;-58
2023/01/09 04:06:38;;;;;;;4.03;1.30;;;;;;;10.67;49.18;99445.06;7390207;19;20003;-56
2023/01/09 04:09:04;;;;;;;2.72;1.40;;;;;;;10.64;49.17;99439.56;7387960;19;20058;-57
2023/01/09 04:11:30;;;;;;;2.83;1.40;;;;;;;10.54;49.43;99444.53;7390139;19;20007;-56
2023/01/09 04:13:55;;;;;;;3.53;1.70;;;;;;;10.61;49.38;99443.81;7387838;19;20002;-57
2023/01/09 04:16:28;;;;;;;2.47;1.60;;;;;;;10.66;49.23;99443.47;7389750;19;20011;-57
2023/01/09 04:18:53;;;;;;;2.83;1.40;;;;;;;10.66;49.15;99437.25;7394354;19;20376;-57
2023/01/09 04:21:19;;;;;;;2.15;1.50;;;;;;;10.63;49.33;99438.75;7397381;19;20005;-57
2023/01/09 04:23:45;;;;;;;3.33;1.70;;;;;;;10.66;49.20;99439.97;7397154;19;20019;-57
2023/01/09 04:26:11;;;;;;;3.38;1.70;;;;;;;10.56;49.29;99428.56;7396921;19;19999;-57
2023/01/09 04:28:36;;;;;;;2.80;1.52;;;;;;;10.59;49.13;99427.03;7393265;19;20744;-56
2023/01/09 04:31:02;;;;;;;2.72;1.27;;;;;;;10.59;49.10;99421.59;7397141;19;20002;-58
2023/01/09 04:33:28;;;;;;;3.67;1.80;;;;;;;10.45;49.28;99424.16;7397051;19;20050;-58
2023/01/09 04:35:54;;;;;;;2.92;1.65;;;;;;;10.50;49.38;99432.00;7396588;19;19999;-57
2023/01/09 04:38:20;;;;;;;3.38;1.80;;;;;;;10.48;49.31;99437.03;7396467;19;19995;-57
2023/01/09 04:40:47;;;;;;;2.75;1.50;;;;;;;10.52;49.22;99449.56;7396868;19;20002;-56
2023/01/09 04:43:13;;;;;;;4.40;1.67;;;;;;;10.43;49.56;99453.75;7395657;19;19999;-57
2023/01/09 04:45:39;;;;;;;3.55;1.65;;;;;;;10.53;49.29;99458.53;7397294;19;20022;-58
2023/01/09 04:48:05;;;;;;;2.30;1.73;;;;;;;10.60;49.00;99461.34;7394243;19;20015;-57
2023/01/09 04:50:31;;;;;;;4.05;1.50;;;;;;;10.55;48.99;99453.47;7397257;19;20009;-57
2023/01/09 04:52:56;;;;;;;2.15;1.38;;;;;;;10.55;49.08;99464.41;7396232;19;19999;-58
2023/01/09 04:55:22;;;;;;;2.72;1.52;;;;;;;10.60;49.12;99461.34;7394572;19;20387;-57
2023/01/09 04:57:48;;;;;;;3.67;1.67;;;;;;;10.50;49.31;99470.19;7394951;19;20069;-57
2023/01/09 05:00:14;;;;;;;2.88;1.38;;;;;;;10.49;49.37;99476.81;7395073;19;20034;-57
2023/01/09 05:02:40;;;;;;;3.13;1.45;;;;;;;10.44;49.23;99475.22;7395664;19;20006;-56
2023/01/09 05:05:08;;;;;;;2.65;1.50;;;;;;;10.34;49.56;99473.91;7394058;19;20007;-57
2023/01/09 05:07:34;;;;;;;2.65;1.50;;;;;;;10.35;49.54;99477.44;7394843;19;20006;-56
2023/01/09 05:10:01;;;;;;;2.83;1.33;;;;;;;10.49;49.43;99479.56;7397140;19;20455;-57
2023/01/09 05:12:27;;;;;;;3.22;1.50;;;;;;;10.54;49.02;99485.44;7396181;19;20003;-57
2023/01/09 05:14:53;;;;;;;2.40;1.40;;;;;;;10.41;49.40;99486.09;7393607;19;20013;-56
2023/01/09 05:17:18;;;;;;;2.45;1.30;;;;;;;10.45;49.18;99495.88;7393630;19;19995;-57
2023/01/09 05:19:44;;;;;;;2.78;1.50;;;;;;;10.52;49.20;99493.22;7395917;19;20003;-57
2023/01/09 05:22:13;;;;;;;2.75;1.35;;;;;;;10.59;49.10;99500.72;7396083;19;20002;-57
2023/01/09 05:24:39;;;;;;;3.20;1.60;;;;;;;10.57;49.12;99501.06;7394106;19;20011;-56
2023/01/09 05:27:05;;;;;;;2.40;1.50;;;;;;;10.58;48.66;99501.84;7393514;19;20030;-57
2023/01/09 05:29:31;;;;;;;3.25;1.50;;;;;;;10.48;49.24;99502.53;7395455;19;20003;-56
2023/01/09 05:31:56;;;;;;;3.13;1.63;;;;;;;10.39;49.28;99508.28;7395590;19;20014;-56
2023/01/09 05:34:24;;;;;;;2.33;1.40;;;;;;;10.40;49.02;99506.31;7394130;19;20009;-57
2023/01/09 05:36:50;;;;;;;2.22;1.40;;;;;;;10.38;48.84;99512.16;7395312;19;20007;-57
2023/01/09 05:39:15;;;;;;;2.50;1.42;;;;;;;10.46;48.91;99510.28;7393064;19;20073;-57
2023/01/09 05:41:41;;;;;;;3.33;1.63;;;;;;;10.42;48.87;99509.47;7394383;19;20006;-57
2023/01/09 05:44:07;;;;;;;6.15;2.13;;;;;;;10.38;48.72;99514.88;7394891;19;20039;-57
2023/01/09 05:46:33;;;;;;;2.58;1.27;;;;;;;10.36;48.77;99509.00;7395197;19;20010;-58
2023/01/09 05:48:58;;;;;;;4.82;1.50;;;;;;;10.36;48.63;99514.47;7392374;19;20168;-56
2023/01/09 05:51:24;;;;;;;4.25;1.60;;;;;;;10.27;48.73;99517.47;7393970;19;20005;-54
2023/01/09 05:53:50;;;;;;;3.05;1.58;;;;;;;10.38;48.36;99520.31;7386944;19;20046;-57
2023/01/09 05:56:16;;;;;;;3.97;1.33;;;;;;;10.20;48.67;99525.53;7396738;19;20011;-58
2023/01/09 05:58:42;;;;;;;7.13;1.60;;;;;;;10.22;48.53;99527.91;7395079;19;20002;-57
2023/01/09 06:01:07;;;;;;;3.50;1.85;;;;;;;10.21;48.68;99532.59;7392706;19;19999;-57
2023/01/09 06:03:33;;;;;;;3.58;1.52;;;;;;;10.13;48.87;99536.38;7391023;19;20014;-57
2023/01/09 06:05:59;;;;;;;3.88;1.38;;;;;;;10.12;48.38;99529.34;7392860;19;19999;-57
2023/01/09 06:08:25;;;;;;;3.25;1.58;;;;;;;10.08;48.35;99539.41;7392105;19;20352;-57
2023/01/09 06:10:51;;;;;;;3.42;1.73;;;;;;;10.12;48.29;99541.03;7392871;19;19994;-57
2023/01/09 06:13:16;;;;;;;2.75;1.50;;;;;;;10.06;48.41;99541.72;7392036;19;20054;-57
2023/01/09 06:15:42;;;;;;;3.58;1.45;;;;;;;10.04;48.29;99541.31;7394303;19;20024;-57
2023/01/09 06:18:08;;;;;;;3.85;1.50;;;;;;;10.01;48.15;99551.00;7393157;19;20334;-57
2023/01/09 06:20:34;;;;;;;3.10;1.60;;;;;;;9.99;48.21;99548.66;7391233;19;20458;-58
2023/01/09 06:22:59;;;;;;;5.13;1.95;;;;;;;9.97;48.43;99550.97;7391573;19;20332;-57
2023/01/09 06:25:25;;;;;;;4.05;1.67;;;;;;;9.97;48.29;99561.88;7393640;19;19998;-58
2023/01/09 06:27:51;;;;;;;6.15;1.98;;;;;;;9.94;48.37;99568.03;7391749;19;20105;-58
2023/01/09 06:30:18;;;;;;;3.15;1.80;;;;;;;10.00;48.04;99566.59;7393226;19;20002;-58
2023/01/09 06:32:44;;;;;;;5.00;1.80;;;;;;;9.92;48.23;99569.56;7392502;19;20041;-57
2023/01/09 06:35:10;;;;;;;4.97;1.90;;;;;;;9.89;48.29;99570.31;7393564;19;20454;-58
2023/01/09 06:37:36;;;;;;;4.60;1.73;;;;;;;9.86;48.18;99577.25;7391942;19;20364;-58
2023/01/09 06:40:02;;;;;;;3.92;1.90;;;;;;;9.85;48.17;99569.44;7392012;19;20006;-57
2023/01/09 06:42:28;;;;;;;3.60;1.80;;;;;;;9.86;48.30;99577.25;7392027;19;19998;-57
2023/01/09 06:44:53;;;;;;;8.38;2.22;;;;;;;9.81;48.04;99585.75;7392871;19;20010;-57
2023/01/09 06:47:19;;;;;;;5.60;1.98;;;;;;;9.74;48.43;99586.44;7392018;19;20369;-57
2023/01/09 06:49:45;;;;;;;5.88;2.75;;;;;;;9.85;48.13;99583.06;7390941;19;20535;-58
2023/01/09 06:52:11;;;;;;;4.93;2.28;;;;;;;9.82;48.02;99581.88;7391407;19;20013;-58
2023/01/09 06:54:36;;;;;;;6.45;2.53;;;;;;;9.81;47.95;99586.53;7390414;19;20337;-58
2023/01/09 06:57:02;;;;;;;5.20;2.40;;;;;;;9.90;47.60;99588.22;7392113;19;19999;-59
2023/01/09 06:59:28;;;;;;;5.30;2.28;;;;;;;9.83;47.90;99583.44;7395276;19;20007;-58
2023/01/09 07:01:54;;;;;;;6.53;2.40;;;;;;;9.81;47.85;99594.69;7392289;19;19995;-57
2023/01/09 07:04:21;;;;;;;6.63;2.58;;;;;;;9.79;48.03;99596.25;7391875;19;20003;-58
2023/01/09 07:06:48;;;;;;;7.50;2.90;;;;;;;9.72;48.12;99596.91;7392249;19;20002;-58
2023/01/09 07:09:14;;;;;;;6.15;2.78;;;;;;;9.78;48.13;99605.56;7389421;19;20459;-58
2023/01/09 07:11:40;;;;;;;6.15;2.70;;;;;;;9.62;48.28;99601.03;7392437;19;20006;-59
2023/01/09 07:14:06;;;;;;;6.50;3.00;;;;;;;9.59;48.18;99600.97;7392079;19;20003;-57
2023/01/09 07:16:32;;;;;;;6.25;2.95;;;;;;;9.66;47.99;99600.31;7391865;19;20023;-58
2023/01/09 07:18:58;;;;;;;7.93;3.22;;;;;;;9.57;48.01;99597.81;7391914;19;20018;-57
2023/01/09 07:21:24;;;;;;;5.65;3.15;;;;;;;9.51;48.07;99602.75;7391683;19;20478;-56
2023/01/09 07:23:50;;;;;;;9.88;3.58;;;;;;;9.40;48.39;99615.38;7389978;19;20003;-58
2023/01/09 07:26:15;;;;;;;8.13;3.40;;;;;;;9.43;48.45;99615.47;7391605;19;19995;-58
2023/01/09 07:28:41;;;;;;;8.52;3.20;;;;;;;9.49;48.39;99623.34;7388670;19;20070;-58
2023/01/09 07:31:07;;;;;;;10.38;3.33;;;;;;;9.55;48.19;99621.88;7391364;19;20006;-58
2023/01/09 07:33:34;;;;;;;9.18;3.70;;;;;;;9.49;48.38;99626.84;7390341;19;19995;-58
2023/01/09 07:35:59;;;;;;;10.55;4.13;;;;;;;9.17;48.86;99623.53;7390970;19;20026;-57
2023/01/09 07:38:25;;;;;;;6.97;3.60;;;;;;;9.22;48.83;99625.97;7390991;19;19999;-59
2023/01/09 07:40:51;;;;;;;9.02;3.83;;;;;;;9.36;48.27;99625.44;7391699;19;20002;-58
2023/01/09 07:43:17;;;;;;;8.35;3.78;;;;;;;9.36;48.32;99639.84;7390830;19;20009;-58
2023/01/09 07:45:45;;;;;;;8.95;4.15;;;;;;;9.37;48.31;99646.88;7390817;19;20473;-58
2023/01/09 07:48:11;;;;;;;8.15;3.92;;;;;;;9.42;48.13;99640.34;7389338;19;20003;-58
2023/01/09 07:50:36;;;;;;;9.40;4.57;;;;;;;9.06;48.80;99651.31;7389211;19;20017;-57
2023/01/09 07:53:02;;;;;;;8.23;3.83;;;;;;;9.15;48.93;99662.03;7391725;19;20049;-57
2023/01/09 07:55:28;;;;;;;9.30;3.92;;;;;;;9.26;48.69;99667.66;7397123;19;19999;-57
2023/01/09 07:57:53;;;;;;;10.00;4.32;;;;;;;9.05;49.07;99668.81;7397757;19;19987;-58
2023/01/09 08:00:20;;;;;;;11.30;4.18;;;;;;;9.10;48.90;99681.34;7398563;19;20358;-58
2023/01/09 08:02:50;;;;;;;8.63;4.10;;;;;;;9.41;48.30;99679.59;7396777;19;20085;-58
2023/01/09 08:05:17;;;;;;;11.60;4.15;;;;;;;9.15;49.15;99685.72;7398630;19;19994;-58
2023/01/09 08:07:44;;;;;;;8.65;3.97;;;;;;;9.23;48.73;99687.44;7395965;19;20014;-58
2023/01/09 08:10:10;;;;;;;9.70;4.18;;;;;;;9.36;48.59;99688.06;7398355;19;19999;-57
2023/01/09 08:12:36;;;;;;;8.82;4.10;;;;;;;9.40;48.52;99686.19;7397177;19;20007;-58
2023/01/09 08:15:02;;;;;;;8.82;4.20;;;;;;;9.58;47.96;99692.78;7398007;19;20018;-58
2023/01/09 08:17:29;;;;;;;12.07;4.40;;;;;;;9.54;47.89;99699.31;7395916;19;19999;-58
2023/01/09 08:19:54;;;;;;;8.40;3.72;;;;;;;9.54;47.96;99700.09;7396133;19;20009;-58
2023/01/09 08:22:20;;;;;;;8.88;3.90;;;;;;;9.44;48.23;99696.00;7396612;19;20003;-63
2023/01/09 08:24:46;;;;;;;7.97;3.80;;;;;;;9.44;48.14;99703.41;7397093;19;20005;-58
2023/01/09 08:27:11;;;;;;;7.32;3.95;;;;;;;9.72;47.46;99699.66;7395362;19;19999;-58
2023/01/09 08:29:37;;;;;;;11.45;4.30;;;;;;;9.13;48.65;99712.50;7396580;19;20019;-57
2023/01/09 08:32:03;;;;;;;10.57;4.40;;;;;;;9.27;48.42;99699.97;7397104;19;20003;-58
2023/01/09 08:34:29;;;;;;;9.48;4.10;;;;;;;9.67;47.71;99713.56;7398108;19;20385;-58
2023/01/09 08:36:55;;;;;;;10.43;3.55;;;;;;;9.76;47.21;99719.59;7396636;19;20006;-58
2023/01/09 08:39:20;;;;;;;10.35;3.60;;;;;;;9.82;47.17;99710.75;7397188;19;20028;-58
2023/01/09 08:47:19;;;;;;;9.57;3.60;;;;;;;9.44;48.03;99708.84;7395690;19;19942;-58
2023/01/09 08:49:44;;;;;;;10.40;3.38;;;;;;;9.73;47.40;99710.19;7397293;19;20356;-58
2023/01/09 08:52:11;;;;;;;8.25;3.55;;;;;;;9.54;47.90;99715.66;7395476;19;19999;-57
2023/01/09 08:54:38;;;;;;;8.95;3.80;;;;;;;9.54;47.80;99713.72;7394173;19;20003;-58
2023/01/09 08:57:05;;;;;;;9.43;3.58;;;;;;;9.57;47.67;99718.44;7394631;19;20003;-57
2023/01/09 08:59:31;;;;;;;11.23;3.70;;;;;;;9.68;47.34;99713.22;7396614;19;19999;-58
2023/01/09 09:01:57;;;;;;;8.98;3.92;;;;;;;9.51;47.67;99719.88;7396131;19;19998;-58
2023/01/09 09:04:23;;;;;;;10.50;3.58;;;;;;;9.43;47.68;99713.53;7396237;19;20001;-58
2023/01/09 09:06:49;;;;;;;10.00;3.50;;;;;;;9.67;47.41;99714.38;7396650;19;20066;-58
2023/01/09 09:09:15;;;;;;;7.90;3.60;;;;;;;9.59;47.53;99713.44;7393511;19;20478;-58
2023/01/09 09:11:41;;;;;;;9.38;3.70;;;;;;;9.76;47.13;99719.59;7394609;19;20014;-59
2023/01/09 09:17:00;;;;;;;7.93;3.60;;;;;;;9.76;46.63;99714.13;7395564;19;19995;-58
2023/01/09 09:19:26;;;;;;;8.88;3.38;;;;;;;9.53;47.68;99714.84;7395959;19;20083;-58
2023/01/09 09:21:52;;;;;;;8.60;3.00;;;;;;;9.68;47.33;99723.31;7395417;19;19994;-58
2023/01/09 09:24:17;;;;;;;8.60;3.10;;;;;;;9.69;46.95;99720.25;7393269;19;20001;-59
2023/01/09 09:26:43;;;;;;;7.43;3.05;;;;;;;9.91;46.66;99724.13;7394975;19;19999;-57
2023/01/09 09:29:09;;;;;;;7.85;3.30;;;;;;;10.03;46.29;99720.44;7393056;19;20364;-59
2023/01/09 09:31:36;;;;;;;10.52;3.30;;;;;;;10.11;46.45;99719.41;7395361;19;20073;-58
2023/01/09 09:34:01;;;;;;;9.55;3.35;;;;;;;10.22;46.27;99730.50;7395300;19;20038;-58
2023/01/09 09:36:28;;;;;;;8.82;3.25;;;;;;;10.20;46.17;99719.16;7394969;19;20006;-58
2023/01/09 09:38:53;;;;;;;9.40;3.00;;;;;;;10.25;46.10;99721.59;7394273;19;20330;-58
2023/01/09 09:44:47;;;;;;;10.32;3.20;;;;;;;10.13;46.57;99724.50;7395292;19;19999;-58
2023/01/09 09:47:22;;;;;;;7.43;2.75;;;;;;;10.42;46.01;99733.13;7393199;19;20023;-58
2023/01/09 09:50:23;;;;;;;10.07;3.10;;;;;;;10.53;45.88;99725.91;7395064;19;20019;-58
2023/01/09 09:53:20;;;;;;;9.27;2.83;;;;;;;10.38;45.68;99735.81;7389707;19;20707;-58
2023/01/09 09:55:48;;;;;;;8.88;3.00;;;;;;;10.37;46.02;99737.75;7394433;19;19999;-58
2023/01/09 09:58:26;;;;;;;11.57;3.30;;;;;;;10.37;46.13;99729.56;7393790;19;20007;-59
2023/01/09 10:00:53;;;;;;;7.65;3.00;;;;;;;10.24;46.28;99738.31;7395031;19;19995;-59
2023/01/09 10:03:30;;;;;;;8.43;3.30;;;;;;;10.32;46.23;99735.34;7392284;19;20019;-58
2023/01/09 10:05:57;;;;;;;7.07;3.08;;;;;;;10.34;46.21;99735.75;7394003;19;20015;-59
2023/01/09 10:08:35;;;;;;;8.27;3.58;;;;;;;10.46;46.11;99734.78;7392675;19;20011;-58
2023/01/09 10:11:02;;;;;;;8.88;3.53;;;;;;;10.53;45.86;99739.53;7394356;19;20006;-59
2023/01/09 10:16:58;;;;;;;10.40;4.10;;;;;;;10.41;45.87;99737.81;7391178;19;20474;-58
2023/01/09 10:19:26;;;;;;;12.75;4.65;;;;;;;10.47;46.34;99741.00;7391398;19;20030;-58
2023/01/09 10:22:01;;;;;;;10.57;3.83;;;;;;;10.50;46.34;99730.16;7393897;19;20098;-58
2023/01/09 10:24:35;;;;;;;13.02;4.20;;;;;;;10.67;46.30;99736.22;7394004;19;20006;-58
2023/01/09 10:27:17;;;;;;;14.05;4.45;;;;;;;10.41;46.53;99732.34;7393148;19;19999;-57
2023/01/09 10:29:58;;;;;;;10.52;3.95;;;;;;;10.12;46.95;99736.56;7393549;19;20001;-58
2023/01/09 10:32:39;;;;;;;8.93;3.97;;;;;;;9.77;47.98;99734.81;7393074;19;19995;-57
2023/01/09 10:35:14;;;;;;;9.80;4.07;;;;;;;10.30;46.82;99734.94;7392831;19;20022;-58
2023/01/09 10:37:45;;;;;;;9.57;4.47;;;;;;;10.29;46.99;99733.34;7393101;19;20018;-58
2023/01/09 10:40:20;;;;;;;10.68;4.20;;;;;;;10.04;47.22;99734.88;7392823;19;20363;-58
2023/01/09 10:42:51;;;;;;;10.25;4.18;;;;;;;10.33;46.81;99731.44;7392435;19;20027;-58
2023/01/09 10:45:43;;;;;;;12.85;4.53;;;;;;;10.65;46.01;99731.16;7393001;19;20003;-58
2023/01/09 10:48:39;;;;;;;8.65;4.28;;;;;;;10.43;46.31;99734.72;7391283;19;20002;-59
2023/01/09 10:51:18;;;;;;;9.05;4.13;;;;;;;10.38;46.68;99738.53;7392325;19;20182;-58
2023/01/09 10:53:49;;;;;;;11.00;3.97;;;;;;;10.58;46.10;99739.22;7389246;19;20124;-57
2023/01/09 10:56:18;;;;;;;9.40;4.18;;;;;;;10.85;45.78;99737.31;7393027;19;20031;-58
2023/01/09 10:58:44;;;;;;;10.35;4.28;;;;;;;10.36;46.73;99741.63;7394437;19;20335;-58
2023/01/09 11:01:10;;;;;;;10.32;4.22;;;;;;;10.28;47.13;99726.31;7395168;19;20009;-57
2023/01/09 11:03:37;;;;;;;10.88;4.30;;;;;;;10.68;46.15;99737.81;7390406;19;20761;-58
2023/01/09 11:06:17;;;;;;;12.43;4.30;;;;;;;10.88;45.84;99727.59;7392500;19;20514;-58
2023/01/09 11:08:46;;;;;;;10.93;4.30;;;;;;;10.89;45.65;99731.91;7391751;19;20431;-57
2023/01/09 11:11:34;;;;;;;10.50;3.95;;;;;;;10.89;45.50;99734.66;7395300;19;19998;-59
2023/01/09 11:14:07;;;;;;;10.02;4.03;;;;;;;10.81;46.04;99730.25;7394735;19;20006;-59
2023/01/09 11:16:33;;;;;;;7.55;3.85;;;;;;;10.59;46.28;99737.31;7396150;19;19999;-59
2023/01/09 11:19:00;;;;;;;14.52;4.40;;;;;;;10.63;46.18;99727.22;7391552;19;20023;-58
2023/01/09 11:21:40;;;;;;;9.32;4.60;;;;;;;10.87;45.83;99726.03;7392261;19;20002;-58
2023/01/09 11:24:18;;;;;;;10.23;3.92;;;;;;;10.50;46.39;99729.38;7389839;19;20002;-59
2023/01/09 11:26:48;;;;;;;12.43;4.07;;;;;;;10.67;46.21;99722.59;7390824;19;20012;-59
2023/01/09 11:29:17;;;;;;;9.70;3.47;;;;;;;10.77;46.27;99724.75;7389750;19;20062;-59
2023/01/09 11:31:53;;;;;;;10.50;4.03;;;;;;;10.60;46.23;99717.81;7391233;19;20050;-60
2023/01/09 11:34:24;;;;;;;11.23;3.78;;;;;;;10.95;45.95;99722.22;7391422;19;20010;-58
2023/01/09 11:36:52;;;;;;;13.00;3.60;;;;;;;11.14;45.52;99715.06;7391514;19;20002;-59
2023/01/09 11:39:27;;;;;;;11.10;3.88;;;;;;;10.92;45.74;99722.97;7390818;19;20032;-59
2023/01/09 11:41:56;;;;;;;11.70;4.00;;;;;;;10.83;46.13;99714.28;7391259;19;20006;-60
2023/01/09 11:44:23;;;;;;;11.20;3.65;;;;;;;10.66;46.16;99721.03;7391290;19;20030;-60
2023/01/09 11:46:49;;;;;;;7.88;3.55;;;;;;;10.50;46.49;99718.44;7390869;19;20002;-60
2023/01/09 11:49:27;;;;;;;10.55;4.50;;;;;;;10.35;46.87;99726.44;7389219;19;20001;-60
2023/01/09 11:52:18;;;;;;;12.23;4.28;;;;;;;10.35;46.79;99729.16;7389284;19;20006;-60
2023/01/09 11:54:57;;;;;;;10.30;4.57;;;;;;;10.40;46.67;99719.09;7383019;19;20549;-54
2023/01/09 11:57:24;;;;;;;9.70;3.80;;;;;;;10.51;46.67;99733.69;7390486;19;20016;-55
2023/01/09 11:59:51;;;;;;;10.07;3.80;;;;;;;10.60;46.62;99723.28;7391122;19;20091;-55
2023/01/09 12:02:48;;;;;;;10.45;4.07;;;;;;;10.36;46.74;99728.00;7388676;19;20554;-54